Accueil
METAR-TAF:

METAR-TAF

Aéroports :

Aéroport de Nantes Atlantique

Nantes, France

latitude: 47-10N, longitude: 001-36W, altitude: 27 m

Observation

Le bulletin a été fait il y a 35 minutes, à 10:00 UTC
Vent 12 kt de est/nord-est, variant entre nord/nord-est et est
Température 6°C
Humidité 81%
Pression 1018 hPa
Visibilité 10 km ou plus
pas de nuages en-dessous de 1500 mètres et pas de cumulonimbus.

METAR: LFRS 181000Z AUTO 06012KT 020V080 CAVOK 06/03 Q1018 NOSIG

Heure: 11:35 (10:35 UTC)

Prévision

Le bulletin a été fait il y a 5 heures et 35 minutes, à 05:00 UTC
Prévision valable du 18 à 06 UTC au 19 à 12 UTC
Vent 10 kt de est/nord-est
Visibilité 10 km ou plus
pas de nuages en-dessous de 1500 mètres et pas de cumulonimbus.

TAF: LFRS 180500Z 1806/1912 07010KT CAVOK

Observations et prévisions météorologiques de plus de 4000 aéroports (messages METAR et TAF).

Les stations disponibles sont représentées par des disques jaunes et rouges sur la carte.

Passer la souris dessus pour voir le nom de la station.

Cliquer dessus pour voir les observations et prévisions météorologiques.

Pour changer de carte: cliquez sur les boutons verts avec une croix noire pour zoomer, sur le bouton vert avec un tiret pour effectuer un zoom arrière, ou sur les flèches vertes pour les cartes adjacentes.


METAR-TAF: